createdAt,value
2022-12-20T00:01:09.018Z,12.70
2022-12-20T00:03:39.030Z,12.13
2022-12-20T00:06:07.892Z,12.30
2022-12-20T00:08:36.588Z,12.47
2022-12-20T00:11:06.030Z,13.40
2022-12-20T00:13:34.688Z,11.43
2022-12-20T00:16:08.059Z,11.33
2022-12-20T00:18:38.777Z,12.43
2022-12-20T00:21:07.984Z,12.17
2022-12-20T00:23:37.068Z,12.00
2022-12-20T00:26:06.492Z,12.90
2022-12-20T00:28:35.430Z,11.60
2022-12-20T00:31:05.198Z,10.67
2022-12-20T00:33:34.184Z,11.30
2022-12-20T00:36:04.164Z,12.43
2022-12-20T00:38:32.720Z,12.10
2022-12-20T00:41:02.481Z,12.20
2022-12-20T00:43:31.248Z,11.07
2022-12-20T00:46:00.035Z,11.90
2022-12-20T00:48:28.736Z,10.20
2022-12-20T00:51:00.226Z,12.53
2022-12-20T00:53:30.302Z,11.73
2022-12-20T00:55:58.921Z,10.37
2022-12-20T00:58:27.527Z,12.30
2022-12-20T01:00:57.147Z,11.47
2022-12-20T01:03:26.164Z,13.13
2022-12-20T01:05:55.499Z,9.93
2022-12-20T01:08:24.112Z,11.63
2022-12-20T01:11:01.681Z,12.67
2022-12-20T01:13:30.268Z,11.07
2022-12-20T01:15:59.460Z,10.80
2022-12-20T01:18:28.135Z,12.10
2022-12-20T01:21:03.092Z,10.97
2022-12-20T01:23:31.711Z,10.60
2022-12-20T01:26:02.483Z,11.27
2022-12-20T01:28:30.996Z,11.83
2022-12-20T01:31:00.455Z,10.77
2022-12-20T01:33:29.039Z,12.40
2022-12-20T01:35:58.836Z,11.47
2022-12-20T01:38:27.463Z,11.37
2022-12-20T01:40:56.807Z,10.93
2022-12-20T01:43:26.765Z,11.43
2022-12-20T01:45:55.317Z,11.70
2022-12-20T01:48:25.719Z,10.50
2022-12-20T01:50:54.453Z,11.40
2022-12-20T01:53:23.292Z,11.07
2022-12-20T01:55:51.879Z,11.00
2022-12-20T01:58:20.408Z,10.70
2022-12-20T02:00:50.867Z,11.00
2022-12-20T02:03:19.502Z,11.77
2022-12-20T02:05:48.179Z,10.03
2022-12-20T02:08:17.883Z,9.90
2022-12-20T02:10:56.119Z,11.30
2022-12-20T02:13:28.624Z,11.60
2022-12-20T02:15:58.839Z,9.60
2022-12-20T02:18:28.831Z,10.70
2022-12-20T02:21:12.749Z,11.07
2022-12-20T02:24:14.054Z,10.03
2022-12-20T02:27:07.958Z,10.57
2022-12-20T02:29:37.927Z,11.10
2022-12-20T02:32:12.885Z,10.97
2022-12-20T02:34:41.487Z,11.00
2022-12-20T02:37:10.047Z,10.20
2022-12-20T02:39:40.276Z,10.60
2022-12-20T02:42:10.190Z,11.07
2022-12-20T02:44:56.914Z,11.53
2022-12-20T02:47:28.068Z,10.63
2022-12-20T02:49:56.865Z,10.53
2022-12-20T02:52:26.534Z,10.70
2022-12-20T02:54:55.199Z,10.00
2022-12-20T02:57:26.710Z,10.87
2022-12-20T02:59:58.549Z,11.13
2022-12-20T03:02:28.683Z,9.73
2022-12-20T03:04:57.329Z,10.60
2022-12-20T03:07:25.854Z,10.23
2022-12-20T03:09:54.398Z,11.20
2022-12-20T03:12:22.933Z,11.50
2022-12-20T03:14:51.531Z,10.77
2022-12-20T03:17:20.125Z,10.60
2022-12-20T03:19:50.240Z,10.60
2022-12-20T03:22:18.766Z,9.97
2022-12-20T03:24:47.297Z,11.67
2022-12-20T03:27:16.630Z,10.37
2022-12-20T03:29:45.958Z,11.20
2022-12-20T03:32:14.496Z,9.90
2022-12-20T03:34:43.046Z,10.93
2022-12-20T03:37:13.081Z,10.47
2022-12-20T03:39:41.675Z,9.67
2022-12-20T03:42:10.288Z,11.07
2022-12-20T03:44:38.906Z,10.97
2022-12-20T03:47:07.537Z,10.97
2022-12-20T03:49:36.210Z,9.50
2022-12-20T03:52:04.853Z,9.50
2022-12-20T03:54:34.857Z,9.20
2022-12-20T03:57:03.443Z,9.40
2022-12-20T03:59:32.016Z,9.17
2022-12-20T04:02:00.993Z,10.73
2022-12-20T04:04:29.668Z,11.13
2022-12-20T04:06:58.232Z,10.80
2022-12-20T04:09:26.830Z,9.80
2022-12-20T04:11:56.777Z,10.40
2022-12-20T04:14:25.332Z,9.53
2022-12-20T04:16:53.888Z,9.87
2022-12-20T04:19:22.413Z,10.27
2022-12-20T04:21:50.957Z,10.50
2022-12-20T04:24:19.586Z,9.80
2022-12-20T04:26:49.247Z,9.70
2022-12-20T04:29:19.176Z,9.93
2022-12-20T04:31:47.768Z,9.80
2022-12-20T04:34:16.338Z,9.80
2022-12-20T04:36:44.928Z,9.40
2022-12-20T04:39:13.503Z,9.27
2022-12-20T04:41:42.123Z,9.40
2022-12-20T04:44:10.705Z,10.73
2022-12-20T04:46:40.722Z,9.40
2022-12-20T04:49:09.354Z,10.83
2022-12-20T04:51:37.871Z,9.70
2022-12-20T04:54:05.713Z,10.07
2022-12-20T04:56:34.306Z,10.90
2022-12-20T04:59:04.090Z,9.47
2022-12-20T05:01:32.739Z,9.20
2022-12-20T05:04:02.893Z,9.73
2022-12-20T05:06:31.492Z,9.40
2022-12-20T05:09:00.078Z,9.33
2022-12-20T05:11:28.835Z,9.87
2022-12-20T05:13:57.431Z,10.57
2022-12-20T05:16:26.119Z,10.60
2022-12-20T05:18:54.674Z,9.50
2022-12-20T05:21:42.188Z,10.13
2022-12-20T05:24:28.501Z,8.83
2022-12-20T05:26:57.272Z,10.00
2022-12-20T05:29:25.882Z,9.40
2022-12-20T05:31:54.947Z,9.17
2022-12-20T05:34:23.911Z,10.27
2022-12-20T05:36:54.011Z,9.30
2022-12-20T05:39:22.587Z,9.53
2022-12-20T05:41:51.278Z,10.23
2022-12-20T05:44:20.249Z,10.13
2022-12-20T05:46:48.894Z,9.40
2022-12-20T05:49:17.928Z,9.80
2022-12-20T05:51:46.455Z,9.90
2022-12-20T05:54:16.445Z,10.13
2022-12-20T05:56:45.013Z,10.20
2022-12-20T05:59:13.611Z,10.67
2022-12-20T06:01:42.608Z,11.30
2022-12-20T06:04:11.414Z,9.77
2022-12-20T06:06:40.075Z,10.20
2022-12-20T06:09:08.816Z,10.80
2022-12-20T06:11:38.727Z,9.43
2022-12-20T06:14:07.310Z,10.47
2022-12-20T06:16:36.706Z,11.93
2022-12-20T06:19:05.485Z,10.77
2022-12-20T06:21:34.042Z,11.10
2022-12-20T06:24:02.606Z,9.73
2022-12-20T06:26:36.112Z,9.67
2022-12-20T06:29:07.135Z,9.90
2022-12-20T06:31:35.798Z,9.57
2022-12-20T06:34:04.342Z,10.93
2022-12-20T06:36:32.895Z,10.83
2022-12-20T06:39:07.588Z,10.50
2022-12-20T06:41:38.091Z,11.07
2022-12-20T06:44:08.369Z,10.77
2022-12-20T06:46:37.036Z,11.47
2022-12-20T06:49:05.764Z,10.63
2022-12-20T06:51:34.330Z,11.03
2022-12-20T06:54:02.882Z,11.00
2022-12-20T06:56:36.094Z,10.07
2022-12-20T06:59:09.342Z,11.80
2022-12-20T07:01:38.072Z,12.90
2022-12-20T07:04:07.199Z,11.73
2022-12-20T07:06:35.740Z,12.70
2022-12-20T07:09:04.836Z,11.50
2022-12-20T07:11:33.435Z,10.80
2022-12-20T07:14:01.966Z,13.80
2022-12-20T07:16:32.312Z,18.00
2022-12-20T07:19:01.254Z,30.60
2022-12-20T07:21:29.972Z,25.83
2022-12-20T07:23:58.553Z,14.63
2022-12-20T07:26:27.165Z,14.50
2022-12-20T07:28:55.770Z,14.90
2022-12-20T07:31:24.394Z,11.10
2022-12-20T07:33:54.651Z,13.37
2022-12-20T07:36:23.175Z,13.80
2022-12-20T07:38:51.750Z,12.30
2022-12-20T07:41:20.459Z,11.97
2022-12-20T07:43:49.040Z,10.47
2022-12-20T07:46:17.955Z,10.93
2022-12-20T07:48:46.588Z,10.90
2022-12-20T07:51:18.667Z,10.80
2022-12-20T07:53:48.205Z,12.40
2022-12-20T07:56:16.769Z,11.43
2022-12-20T07:58:45.439Z,12.43
2022-12-20T08:01:14.183Z,11.00
2022-12-20T08:03:45.399Z,13.50
2022-12-20T08:06:14.184Z,22.90
2022-12-20T08:08:45.302Z,17.97
2022-12-20T08:11:13.924Z,12.90
2022-12-20T08:13:46.215Z,13.73
2022-12-20T08:16:16.140Z,12.33
2022-12-20T08:18:44.742Z,12.17
2022-12-20T08:21:14.718Z,12.73
2022-12-20T08:23:44.733Z,10.53
2022-12-20T08:26:13.443Z,12.00
2022-12-20T08:28:42.022Z,12.90
2022-12-20T08:31:10.852Z,12.20
2022-12-20T08:33:40.233Z,16.30
2022-12-20T08:36:10.553Z,15.00
2022-12-20T08:38:39.161Z,13.20
2022-12-20T08:41:11.052Z,13.47
2022-12-20T08:43:39.933Z,12.37
2022-12-20T08:46:08.783Z,13.93
2022-12-20T08:48:37.406Z,11.90
2022-12-20T08:51:07.308Z,11.20
2022-12-20T08:53:36.265Z,12.10
2022-12-20T08:56:10.135Z,11.50
2022-12-20T08:58:38.801Z,10.80
2022-12-20T09:01:08.478Z,11.57
2022-12-20T09:03:37.698Z,11.13
2022-12-20T09:06:07.783Z,16.03
2022-12-20T09:08:36.447Z,16.37
2022-12-20T09:11:06.299Z,15.17
2022-12-20T09:13:43.163Z,16.70
2022-12-20T09:16:13.442Z,16.50
2022-12-20T09:18:42.457Z,13.83
2022-12-20T09:21:11.487Z,13.57
2022-12-20T09:23:40.056Z,11.73
2022-12-20T09:26:09.670Z,11.70
2022-12-20T09:28:39.640Z,11.67
2022-12-20T09:31:09.711Z,15.57
2022-12-20T09:33:38.364Z,24.60
2022-12-20T09:36:07.668Z,19.83
2022-12-20T09:38:36.726Z,21.70
2022-12-20T09:41:06.245Z,17.97
2022-12-20T09:43:34.909Z,20.77
2022-12-20T09:46:05.312Z,13.17
2022-12-20T09:48:35.333Z,11.20
2022-12-20T09:51:09.023Z,13.00
2022-12-20T09:53:41.764Z,11.77
2022-12-20T09:56:13.869Z,12.60
2022-12-20T09:58:59.191Z,11.40
2022-12-20T10:01:36.209Z,11.13
2022-12-20T10:04:16.919Z,10.10
2022-12-20T10:06:48.634Z,10.73
2022-12-20T10:09:26.584Z,9.70
2022-12-20T10:12:02.652Z,11.77
2022-12-20T10:14:48.352Z,10.70
2022-12-20T10:17:25.019Z,9.20
2022-12-20T10:20:05.032Z,9.93
2022-12-20T10:22:38.770Z,10.47
2022-12-20T10:25:17.218Z,10.33
2022-12-20T10:27:46.252Z,9.97
2022-12-20T10:30:18.707Z,11.63
2022-12-20T10:32:49.998Z,9.97
2022-12-20T10:35:26.920Z,10.03
2022-12-20T10:38:09.968Z,9.13
2022-12-20T10:41:19.613Z,9.90
2022-12-20T10:43:28.491Z,11.37
2022-12-20T10:45:58.835Z,11.60
2022-12-20T10:48:34.036Z,10.60
2022-12-20T10:51:04.056Z,10.23
2022-12-20T10:53:32.840Z,10.60
2022-12-20T10:56:17.401Z,10.63
2022-12-20T10:58:47.569Z,10.20
2022-12-20T11:01:18.214Z,9.80
2022-12-20T11:03:59.181Z,11.00
2022-12-20T11:06:30.607Z,9.63
2022-12-20T11:09:28.427Z,12.60
2022-12-20T11:12:00.186Z,11.60
2022-12-20T11:14:34.581Z,13.23
2022-12-20T11:17:16.488Z,13.63
2022-12-20T11:19:59.045Z,11.87
2022-12-20T11:22:34.569Z,13.53
2022-12-20T11:25:09.113Z,12.83
2022-12-20T11:27:41.530Z,13.60
2022-12-20T11:30:18.702Z,12.93
2022-12-20T11:33:04.297Z,15.10
2022-12-20T11:35:39.287Z,11.83
2022-12-20T11:38:11.466Z,20.97
2022-12-20T11:40:42.052Z,14.33
2022-12-20T11:43:26.882Z,11.60
2022-12-20T11:46:03.496Z,14.00
2022-12-20T11:48:46.468Z,10.70
2022-12-20T11:51:26.384Z,9.80
2022-12-20T11:53:58.541Z,11.00
2022-12-20T11:56:29.372Z,13.47
2022-12-20T11:58:58.751Z,11.07
2022-12-20T12:01:30.324Z,10.00
2022-12-20T12:04:06.410Z,13.43
2022-12-20T12:06:37.057Z,17.70
2022-12-20T12:09:17.068Z,11.43
2022-12-20T12:14:56.673Z,14.47
2022-12-20T12:17:28.491Z,14.13
2022-12-20T12:19:58.481Z,9.80
2022-12-20T12:22:30.384Z,11.40
2022-12-20T12:25:00.594Z,13.17
2022-12-20T12:27:29.668Z,12.20
2022-12-20T12:29:58.942Z,13.23
2022-12-20T12:32:30.734Z,16.30
2022-12-20T12:35:16.391Z,16.57
2022-12-20T12:37:54.950Z,33.00
2022-12-20T12:40:57.043Z,25.20
2022-12-20T12:43:47.121Z,20.77
2022-12-20T12:46:17.383Z,17.20
2022-12-20T12:48:48.363Z,16.60
2022-12-20T12:51:17.090Z,24.27
2022-12-20T12:53:50.143Z,17.97
2022-12-20T12:56:44.325Z,18.77
2022-12-20T12:59:51.796Z,13.80
2022-12-20T13:02:36.499Z,14.93
2022-12-20T13:05:30.606Z,14.17
2022-12-20T13:08:00.717Z,13.03
2022-12-20T13:10:59.653Z,13.43
2022-12-20T13:13:28.298Z,13.52
2022-12-20T13:17:02.212Z,13.57
2022-12-20T13:19:18.383Z,13.47
2022-12-20T13:21:48.504Z,11.60
2022-12-20T13:24:56.737Z,12.30
2022-12-20T13:27:28.785Z,10.40
2022-12-20T13:30:00.391Z,10.67
2022-12-20T13:33:14.457Z,10.93
2022-12-20T13:35:59.567Z,12.90
2022-12-20T13:38:52.115Z,13.63
2022-12-20T13:41:38.118Z,12.47
2022-12-20T13:44:33.019Z,14.37
2022-12-20T13:47:04.911Z,12.40
2022-12-20T13:49:35.984Z,11.20
2022-12-20T13:52:31.672Z,11.93
2022-12-20T13:55:01.843Z,11.90
2022-12-20T13:57:32.315Z,10.80
2022-12-20T14:00:11.531Z,13.55
2022-12-20T14:02:42.623Z,11.53
2022-12-20T14:05:17.022Z,11.27
2022-12-20T14:07:46.736Z,12.00
2022-12-20T14:10:20.807Z,11.03
2022-12-20T14:12:52.831Z,11.40
2022-12-20T14:15:25.695Z,12.00
2022-12-20T14:17:54.378Z,13.30
2022-12-20T14:20:25.522Z,16.20
2022-12-20T14:23:04.133Z,13.97
2022-12-20T14:25:36.473Z,19.40
2022-12-20T14:28:05.096Z,19.27
2022-12-20T14:30:37.700Z,18.87
2022-12-20T14:33:06.361Z,18.43
2022-12-20T14:35:35.023Z,13.50
2022-12-20T14:38:04.223Z,14.20
2022-12-20T14:40:33.570Z,14.87
2022-12-20T14:43:02.182Z,14.33
2022-12-20T14:45:30.791Z,13.57
2022-12-20T14:48:02.985Z,12.40
2022-12-20T14:50:32.975Z,12.50
2022-12-20T14:53:01.839Z,12.47
2022-12-20T14:55:34.213Z,12.53
2022-12-20T14:58:02.791Z,13.30
2022-12-20T15:00:31.849Z,12.80
2022-12-20T15:03:03.840Z,15.10
2022-12-20T15:05:53.686Z,15.13
2022-12-20T15:08:24.246Z,14.97
2022-12-20T15:10:58.445Z,15.73
2022-12-20T15:13:29.955Z,17.00
2022-12-20T15:16:01.250Z,20.47
2022-12-20T15:18:31.424Z,18.20
2022-12-20T15:21:04.708Z,18.80
2022-12-20T15:23:33.306Z,19.70
2022-12-20T15:26:01.905Z,30.10
2022-12-20T15:28:30.494Z,27.97
2022-12-20T15:30:59.221Z,28.47
2022-12-20T15:33:31.444Z,23.80
2022-12-20T15:35:59.986Z,19.37
2022-12-20T15:38:54.932Z,17.93
2022-12-20T15:41:20.803Z,15.20
2022-12-20T15:43:49.388Z,14.10
2022-12-20T15:46:18.058Z,15.33
2022-12-20T15:48:48.131Z,16.40
2022-12-20T15:51:17.728Z,16.80
2022-12-20T15:53:46.321Z,16.97
2022-12-20T15:56:18.372Z,17.20
2022-12-20T15:58:47.651Z,15.20
2022-12-20T16:01:17.181Z,16.40
2022-12-20T16:03:47.440Z,16.47
2022-12-20T16:06:16.143Z,17.20
2022-12-20T16:08:44.672Z,15.33
2022-12-20T16:11:20.307Z,16.90
2022-12-20T16:13:48.954Z,17.63
2022-12-20T16:16:19.150Z,16.73
2022-12-20T16:18:49.482Z,17.83
2022-12-20T16:21:18.961Z,17.10
2022-12-20T16:23:47.582Z,15.57
2022-12-20T16:26:16.338Z,19.73
2022-12-20T16:28:44.968Z,18.30
2022-12-20T16:31:18.606Z,16.20
2022-12-20T16:33:48.533Z,18.57
2022-12-20T16:36:17.095Z,16.80
2022-12-20T16:38:45.905Z,15.30
2022-12-20T16:41:15.564Z,15.50
2022-12-20T16:43:44.176Z,16.67
2022-12-20T16:46:13.683Z,18.50
2022-12-20T16:48:42.704Z,19.50
2022-12-20T16:51:24.434Z,17.33
2022-12-20T16:56:42.026Z,18.17
2022-12-20T16:59:20.724Z,18.67
2022-12-20T17:01:49.977Z,17.60
2022-12-20T17:04:19.284Z,16.70
2022-12-20T17:06:49.605Z,18.03
2022-12-20T17:12:06.640Z,19.00
2022-12-20T17:14:35.279Z,19.07
2022-12-20T17:17:03.904Z,18.40
2022-12-20T17:19:32.485Z,18.93
2022-12-20T17:24:48.333Z,19.63
2022-12-20T17:27:16.944Z,19.70
2022-12-20T17:29:45.563Z,18.33
2022-12-20T17:32:20.372Z,19.40
2022-12-20T17:34:49.049Z,18.40
2022-12-20T17:37:19.013Z,18.80
2022-12-20T17:39:47.732Z,18.63
2022-12-20T17:42:16.655Z,16.70
2022-12-20T17:44:46.090Z,18.30
2022-12-20T17:47:14.774Z,17.50
2022-12-20T17:49:43.386Z,17.53
2022-12-20T17:52:14.527Z,16.93
2022-12-20T17:54:44.456Z,18.00
2022-12-20T17:57:15.301Z,17.70
2022-12-20T17:59:44.036Z,16.87
2022-12-20T18:02:21.746Z,16.47
2022-12-20T18:04:50.845Z,17.27
2022-12-20T18:07:19.554Z,16.40
2022-12-20T18:09:51.047Z,18.13
2022-12-20T18:12:19.754Z,18.83
2022-12-20T18:14:50.141Z,18.07
2022-12-20T18:17:18.737Z,17.97
2022-12-20T18:19:47.312Z,18.40
2022-12-20T18:22:15.935Z,20.10
2022-12-20T18:24:44.514Z,27.10
2022-12-20T18:27:14.909Z,17.30
2022-12-20T18:29:43.530Z,17.80
2022-12-20T18:32:12.528Z,15.93
2022-12-20T18:34:41.189Z,16.67
2022-12-20T18:37:09.799Z,17.10
2022-12-20T18:39:38.505Z,15.60
2022-12-20T18:42:07.181Z,17.23
2022-12-20T18:44:37.261Z,16.37
2022-12-20T18:47:06.034Z,15.70
2022-12-20T18:49:34.672Z,15.87
2022-12-20T18:52:03.279Z,15.77
2022-12-20T18:54:31.919Z,16.00
2022-12-20T18:57:00.534Z,15.70
2022-12-20T18:59:29.247Z,16.60
2022-12-20T19:01:59.917Z,17.20
2022-12-20T19:04:28.627Z,15.67
2022-12-20T19:06:58.209Z,14.30
2022-12-20T19:09:26.884Z,15.67
2022-12-20T19:11:57.740Z,16.30
2022-12-20T19:14:27.274Z,15.07
2022-12-20T19:16:56.181Z,15.47
2022-12-20T19:19:26.490Z,15.10
2022-12-20T19:21:55.220Z,14.13
2022-12-20T19:24:23.889Z,14.87
2022-12-20T19:26:52.529Z,15.60
2022-12-20T19:29:21.340Z,14.07
2022-12-20T19:31:50.074Z,15.10
2022-12-20T19:34:18.883Z,13.17
2022-12-20T19:36:49.203Z,14.53
2022-12-20T19:39:19.914Z,16.23
2022-12-20T19:42:15.490Z,17.00
2022-12-20T19:44:37.176Z,15.03
2022-12-20T19:47:06.142Z,14.77
2022-12-20T19:49:35.485Z,14.73
2022-12-20T19:52:05.998Z,15.03
2022-12-20T19:54:35.181Z,14.07
2022-12-20T19:57:03.954Z,15.70
2022-12-20T19:59:32.600Z,14.43
2022-12-20T20:02:01.506Z,16.37
2022-12-20T20:04:30.342Z,14.60
2022-12-20T20:06:59.046Z,14.37
2022-12-20T20:09:30.169Z,15.83
2022-12-20T20:11:58.977Z,14.77
2022-12-20T20:14:27.617Z,14.83
2022-12-20T20:16:56.182Z,15.27
2022-12-20T20:19:24.781Z,14.47
2022-12-20T20:21:53.454Z,13.90
2022-12-20T20:24:22.114Z,14.47
2022-12-20T20:26:52.099Z,14.40
2022-12-20T20:29:20.708Z,13.90
2022-12-20T20:31:50.094Z,14.43
2022-12-20T20:34:19.014Z,13.37
2022-12-20T20:36:47.710Z,14.20
2022-12-20T20:39:16.363Z,14.73
2022-12-20T20:41:44.963Z,14.40
2022-12-20T20:44:15.106Z,14.67
2022-12-20T20:46:43.775Z,14.13
2022-12-20T20:49:12.613Z,13.57
2022-12-20T20:51:41.441Z,14.00
2022-12-20T20:54:10.920Z,15.07
2022-12-20T20:56:40.515Z,13.33
2022-12-20T20:59:15.160Z,14.40
2022-12-20T21:01:47.515Z,14.17
2022-12-20T21:04:16.233Z,15.10
2022-12-20T21:06:46.017Z,14.23
2022-12-20T21:09:14.745Z,14.00
2022-12-20T21:11:43.548Z,14.17
2022-12-20T21:14:12.532Z,14.07
2022-12-20T21:16:41.981Z,14.27
2022-12-20T21:19:12.320Z,16.07
2022-12-20T21:21:40.844Z,15.10
2022-12-20T21:24:09.864Z,14.63
2022-12-20T21:26:38.422Z,14.70
2022-12-20T21:29:07.042Z,13.97
2022-12-20T21:31:36.146Z,15.90
2022-12-20T21:34:04.819Z,14.27
2022-12-20T21:36:35.874Z,13.93
2022-12-20T21:39:04.613Z,15.03
2022-12-20T21:41:33.159Z,15.10
2022-12-20T21:44:01.875Z,15.37
2022-12-20T21:46:31.850Z,14.47
2022-12-20T21:49:01.023Z,14.37
2022-12-20T21:51:30.129Z,14.80
2022-12-20T21:54:00.807Z,15.00
2022-12-20T21:56:30.304Z,15.47
2022-12-20T21:58:58.888Z,15.80
2022-12-20T22:01:28.289Z,15.83
2022-12-20T22:03:58.396Z,15.70
2022-12-20T22:06:27.994Z,14.90
2022-12-20T22:08:59.161Z,15.80
2022-12-20T22:11:28.000Z,17.00
2022-12-20T22:13:56.909Z,15.57
2022-12-20T22:16:26.364Z,14.27
2022-12-20T22:18:55.642Z,15.67
2022-12-20T22:21:25.047Z,14.47
2022-12-20T22:23:54.802Z,14.80
2022-12-20T22:26:25.653Z,14.33
2022-12-20T22:28:55.486Z,15.23
2022-12-20T22:31:24.136Z,15.47
2022-12-20T22:33:53.339Z,14.40
2022-12-20T22:36:22.786Z,14.97
2022-12-20T22:38:52.622Z,15.50
2022-12-20T22:41:23.571Z,14.53
2022-12-20T22:43:52.865Z,14.80
2022-12-20T22:46:21.613Z,15.13
2022-12-20T22:48:50.235Z,14.60
2022-12-20T22:51:19.790Z,14.37
2022-12-20T22:53:49.638Z,14.17
2022-12-20T22:56:19.450Z,14.30
2022-12-20T22:58:49.449Z,14.60
2022-12-20T23:01:19.058Z,13.60
2022-12-20T23:03:49.164Z,14.07
2022-12-20T23:06:18.630Z,14.23
2022-12-20T23:08:47.432Z,15.47
2022-12-20T23:11:35.671Z,14.80
2022-12-20T23:14:23.263Z,14.60
2022-12-20T23:16:52.068Z,15.40
2022-12-20T23:19:20.674Z,14.33
2022-12-20T23:22:06.840Z,14.20
2022-12-20T23:24:35.430Z,14.00
2022-12-20T23:27:04.049Z,14.80
2022-12-20T23:29:34.054Z,13.50
2022-12-20T23:32:02.706Z,15.57
2022-12-20T23:34:31.385Z,15.00
2022-12-20T23:37:00.387Z,14.23
2022-12-20T23:39:28.954Z,15.53
2022-12-20T23:41:57.532Z,14.97
2022-12-20T23:44:26.150Z,15.37
2022-12-20T23:46:56.079Z,14.60
2022-12-20T23:49:24.668Z,15.10
2022-12-20T23:51:53.249Z,16.90
2022-12-20T23:54:22.396Z,16.43
2022-12-20T23:56:50.965Z,17.53
2022-12-20T23:59:19.433Z,15.07
